Time;durP1;ratioP1;P1;durP2;ratioP2;P2;SDS_P1;SDS_P2;PMS_P1;PMS_P2;Temp;Humidity;BMP_temperature;BMP_pressure;BME280_temperature;BME280_humidity;BME280_pressure;Samples;Min_cycle;Max_cycle;Signal;HPM_P1;HPM_P2
2020/12/21 00:01:48;;;;;;;25.90;15.30;;;;;;;1.92;87.31;101577.16;1678727;85;25767;-78
2020/12/21 00:04:15;;;;;;;24.90;14.55;;;;;;;1.93;87.21;101577.52;1665696;84;25823;-77
2020/12/21 00:06:42;;;;;;;27.62;16.20;;;;;;;1.94;87.12;101577.09;1678785;84;25702;-77
2020/12/21 00:09:08;;;;;;;27.58;17.65;;;;;;;1.93;87.12;101574.94;1670930;84;25846;-77
2020/12/21 00:11:38;;;;;;;28.35;17.77;;;;;;;1.94;87.19;101575.34;1675628;84;25616;-77
2020/12/21 00:14:06;;;;;;;32.08;19.48;;;;;;;1.96;87.23;101576.09;1675579;85;25753;-78
2020/12/21 00:16:42;;;;;;;28.70;16.62;;;;;;;1.95;87.17;101569.72;1653830;85;25504;-77
2020/12/21 00:19:10;;;;;;;28.25;16.17;;;;;;;1.94;87.10;101570.64;1673775;85;25771;-77
2020/12/21 00:21:39;;;;;;;25.08;16.50;;;;;;;1.88;87.01;101574.38;1676148;84;26390;-77
2020/12/21 00:24:07;;;;;;;27.60;16.20;;;;;;;1.87;87.09;101575.27;1673258;84;25666;-78
2020/12/21 00:26:33;;;;;;;26.85;15.63;;;;;;;1.81;87.50;101564.45;1676319;84;25631;-77
2020/12/21 00:29:01;;;;;;;25.75;14.75;;;;;;;1.88;87.38;101553.75;1676704;84;25773;-78
2020/12/21 00:31:33;;;;;;;28.17;17.12;;;;;;;1.88;87.38;101553.75;1677684;85;25763;-77
2020/12/21 00:34:03;;;;;;;25.20;16.05;;;;;;;2.03;87.14;101577.89;1679044;84;25754;-79
2020/12/21 00:36:31;;;;;;;30.25;17.92;;;;;;;2.03;87.03;101577.89;1679559;85;26357;-80
2020/12/21 00:38:57;;;;;;;26.97;16.12;;;;;;;2.04;87.04;101573.56;1678728;85;26562;-80
2020/12/21 00:41:25;;;;;;;25.60;14.95;;;;;;;2.09;87.14;101572.86;1674937;85;25799;-80
2020/12/21 00:43:53;;;;;;;25.83;16.30;;;;;;;1.87;86.96;101535.77;1668516;84;26368;-80
2020/12/21 00:46:26;;;;;;;28.95;16.23;;;;;;;2.02;86.83;101567.20;1673310;84;26734;-78
2020/12/21 00:48:55;;;;;;;29.45;15.25;;;;;;;1.98;86.84;101572.96;1676905;84;25742;-78
2020/12/21 00:51:22;;;;;;;22.90;13.48;;;;;;;1.98;86.95;101573.42;1677221;84;26542;-78
2020/12/21 00:53:49;;;;;;;25.12;15.85;;;;;;;2.02;86.98;101569.79;1678934;84;25876;-77
2020/12/21 00:56:19;;;;;;;24.85;15.08;;;;;;;2.02;86.92;101565.92;1677339;84;25724;-77
2020/12/21 00:58:47;;;;;;;23.12;14.83;;;;;;;2.01;86.90;101571.97;1679347;84;25935;-77
2020/12/21 01:01:20;;;;;;;23.12;15.10;;;;;;;2.04;86.87;101570.98;1673537;84;25917;-77
2020/12/21 01:03:47;;;;;;;24.37;15.18;;;;;;;2.08;87.02;101564.77;1678677;85;25798;-77
2020/12/21 01:06:15;;;;;;;24.10;16.25;;;;;;;2.12;86.87;101561.09;1676156;84;26226;-78
2020/12/21 01:08:46;;;;;;;26.73;15.60;;;;;;;2.10;86.83;101559.91;1675049;84;25849;-77
2020/12/21 01:11:15;;;;;;;22.93;15.18;;;;;;;2.09;86.79;101555.64;1677999;84;26417;-77
2020/12/21 01:13:43;;;;;;;24.52;15.38;;;;;;;2.07;86.74;101554.05;1675349;84;25527;-77
2020/12/21 01:16:10;;;;;;;24.47;16.25;;;;;;;2.06;86.93;101558.84;1676160;84;25762;-77
2020/12/21 01:18:37;;;;;;;26.62;14.78;;;;;;;2.09;86.98;101561.27;1678889;85;25623;-78
2020/12/21 01:21:04;;;;;;;26.65;16.35;;;;;;;2.11;87.00;101562.84;1679290;84;26224;-78
2020/12/21 01:23:31;;;;;;;27.10;15.50;;;;;;;2.13;86.92;101558.45;1679282;84;25701;-77
2020/12/21 01:25:58;;;;;;;26.15;14.85;;;;;;;2.19;87.05;101556.00;1679642;84;25861;-77
2020/12/21 01:28:24;;;;;;;24.85;15.23;;;;;;;2.21;86.87;101557.59;1679020;84;25922;-77
2020/12/21 01:30:51;;;;;;;27.25;17.12;;;;;;;2.25;86.82;101559.54;1672018;84;26332;-77
2020/12/21 01:33:17;;;;;;;24.55;15.93;;;;;;;2.29;86.94;101548.59;1674261;84;25860;-77
2020/12/21 01:35:43;;;;;;;31.12;18.32;;;;;;;2.29;86.73;101552.46;1674205;84;25709;-77
2020/12/21 01:38:10;;;;;;;30.48;19.23;;;;;;;2.26;86.75;101554.74;1674939;84;26477;-77
2020/12/21 01:40:37;;;;;;;29.40;18.27;;;;;;;2.25;86.78;101559.54;1671501;84;25808;-77
2020/12/21 01:43:03;;;;;;;27.82;17.17;;;;;;;2.16;86.60;101567.31;1672872;84;25803;-77
2020/12/21 01:45:29;;;;;;;26.57;16.25;;;;;;;2.14;86.67;101565.72;1673279;84;25784;-78
2020/12/21 01:47:57;;;;;;;25.15;15.55;;;;;;;2.13;86.77;101561.03;1676296;84;25908;-77
2020/12/21 01:50:23;;;;;;;21.85;14.15;;;;;;;2.17;86.86;101559.94;1667130;85;25751;-77
2020/12/21 01:52:50;;;;;;;23.27;14.50;;;;;;;2.15;86.55;101557.89;1690933;84;25950;-78
2020/12/21 01:55:16;;;;;;;25.05;14.83;;;;;;;2.15;86.70;101554.48;1696406;84;25854;-77
2020/12/21 01:57:43;;;;;;;26.10;16.30;;;;;;;2.19;86.75;101549.09;1700405;83;25804;-77
2020/12/21 02:00:09;;;;;;;25.05;15.08;;;;;;;2.25;86.80;101551.80;1696627;84;25677;-77
2020/12/21 02:02:39;;;;;;;23.87;15.68;;;;;;;2.30;86.67;101553.68;1696281;84;25829;-77
2020/12/21 02:05:05;;;;;;;28.15;16.35;;;;;;;2.29;86.59;101549.45;1696734;83;26437;-77
2020/12/21 02:07:32;;;;;;;26.12;16.07;;;;;;;2.29;86.60;101540.42;1704358;83;26874;-77
2020/12/21 02:09:59;;;;;;;29.95;17.40;;;;;;;2.31;86.58;101532.12;1707963;83;25741;-77
2020/12/21 02:12:25;;;;;;;29.18;15.53;;;;;;;2.31;86.60;101534.70;1694996;83;26314;-77
2020/12/21 02:14:52;;;;;;;27.67;16.42;;;;;;;2.25;86.42;101532.45;1694456;84;25702;-78
2020/12/21 02:17:18;;;;;;;26.77;15.72;;;;;;;2.27;86.65;101533.67;1692870;83;25787;-77
2020/12/21 02:19:45;;;;;;;26.57;15.15;;;;;;;2.28;86.55;101527.12;1694091;83;25878;-78
2020/12/21 02:22:11;;;;;;;28.32;15.43;;;;;;;2.27;86.48;101520.78;1696601;84;25934;-77
2020/12/21 02:24:40;;;;;;;28.12;16.42;;;;;;;2.29;86.72;101517.20;1694052;84;25889;-78
2020/12/21 02:27:07;;;;;;;30.12;16.42;;;;;;;2.35;86.63;101514.28;1695134;83;25479;-77
2020/12/21 02:29:34;;;;;;;29.02;17.07;;;;;;;2.17;86.70;101490.30;1696961;83;25679;-78
2020/12/21 02:32:00;;;;;;;28.40;16.67;;;;;;;2.17;86.70;101490.30;1693761;83;26293;-77
2020/12/21 02:34:27;;;;;;;28.62;16.93;;;;;;;2.25;86.71;101510.99;1693362;84;25754;-78
2020/12/21 02:36:55;;;;;;;28.65;16.95;;;;;;;2.25;86.71;101510.99;1696185;84;25775;-77
2020/12/21 02:39:24;;;;;;;26.85;16.50;;;;;;;2.23;86.62;101517.05;1696018;83;25802;-78
2020/12/21 02:41:52;;;;;;;25.77;15.65;;;;;;;2.25;86.76;101520.02;1694229;84;26945;-77
2020/12/21 02:44:19;;;;;;;26.57;15.70;;;;;;;2.27;86.77;101519.03;1689089;84;25874;-77
2020/12/21 02:46:45;;;;;;;27.75;15.98;;;;;;;2.28;86.51;101510.36;1693777;83;26333;-77
2020/12/21 02:49:13;;;;;;;26.40;15.15;;;;;;;2.28;86.51;101510.36;1692526;83;25860;-77
2020/12/21 02:51:39;;;;;;;26.45;15.88;;;;;;;2.31;86.72;101512.77;1689367;84;25732;-77
2020/12/21 02:54:06;;;;;;;25.00;16.00;;;;;;;2.30;86.68;101512.88;1698250;82;25739;-78
2020/12/21 02:56:32;;;;;;;28.17;17.42;;;;;;;2.27;86.64;101509.17;1696221;82;25719;-78
2020/12/21 02:58:59;;;;;;;32.80;18.25;;;;;;;2.28;86.73;101503.91;1695899;82;26247;-78
2020/12/21 03:01:25;;;;;;;32.78;17.57;;;;;;;2.21;86.54;101492.28;1695716;84;25775;-78
2020/12/21 03:03:51;;;;;;;29.67;17.37;;;;;;;2.21;86.54;101492.28;1697085;82;25850;-78
2020/12/21 03:06:18;;;;;;;27.20;16.62;;;;;;;2.29;86.77;101516.34;1694508;82;26352;-78
2020/12/21 03:08:44;;;;;;;31.93;17.92;;;;;;;2.26;86.84;101517.34;1694936;82;25824;-77
2020/12/21 03:11:11;;;;;;;29.50;16.85;;;;;;;2.22;86.81;101514.56;1696802;82;25727;-77
2020/12/21 03:13:38;;;;;;;27.10;16.25;;;;;;;2.22;86.93;101520.55;1697373;82;25666;-79
2020/12/21 03:16:05;;;;;;;27.07;16.85;;;;;;;2.17;86.94;101507.07;1688730;82;25822;-77
2020/12/21 03:18:32;;;;;;;27.98;17.23;;;;;;;2.22;86.76;101515.86;1691678;83;25784;-77
2020/12/21 03:20:58;;;;;;;29.45;17.27;;;;;;;2.27;86.82;101511.28;1718259;82;25623;-78
2020/12/21 03:23:24;;;;;;;29.67;17.05;;;;;;;2.27;86.82;101511.28;1717656;83;25827;-77
2020/12/21 03:25:51;;;;;;;30.92;18.37;;;;;;;2.33;87.15;101514.81;1694086;82;25650;-78
2020/12/21 03:28:17;;;;;;;36.93;21.30;;;;;;;2.36;87.04;101512.06;1695470;82;25629;-78
2020/12/21 03:30:44;;;;;;;31.27;18.05;;;;;;;2.37;87.09;101511.61;1696981;84;26430;-77
2020/12/21 03:33:10;;;;;;;35.75;20.92;;;;;;;2.40;87.08;101509.71;1697816;82;25769;-77
2020/12/21 03:35:37;;;;;;;33.18;20.35;;;;;;;2.38;86.95;101499.92;1689254;82;25781;-77
2020/12/21 03:38:03;;;;;;;34.25;20.08;;;;;;;2.30;86.82;101508.54;1697813;84;25777;-77
2020/12/21 03:40:30;;;;;;;34.13;19.75;;;;;;;2.26;87.01;101509.61;1702217;82;26361;-77
2020/12/21 03:42:56;;;;;;;35.70;19.62;;;;;;;2.26;87.12;101511.36;1700799;83;26366;-77
2020/12/21 03:45:23;;;;;;;35.83;20.25;;;;;;;2.29;87.18;101506.89;1697558;84;25741;-77
2020/12/21 03:47:49;;;;;;;37.73;21.48;;;;;;;2.29;87.18;101506.89;1698853;83;26423;-78
2020/12/21 03:50:18;;;;;;;34.27;20.02;;;;;;;2.29;87.14;101509.47;1696899;82;25861;-77
2020/12/21 03:52:45;;;;;;;32.65;19.52;;;;;;;2.15;86.84;101481.81;1687641;82;26496;-77
2020/12/21 03:55:12;;;;;;;36.38;20.25;;;;;;;2.15;86.84;101481.81;1679327;85;26425;-77
2020/12/21 03:57:39;;;;;;;36.63;20.92;;;;;;;2.32;87.31;101494.25;1679365;84;26349;-77
2020/12/21 04:00:07;;;;;;;39.10;21.87;;;;;;;2.32;87.31;101494.25;1678564;84;25686;-77
2020/12/21 04:02:40;;;;;;;36.13;21.30;;;;;;;2.31;87.10;101498.58;1665894;84;25762;-77
2020/12/21 04:05:07;;;;;;;40.12;22.32;;;;;;;2.31;87.11;101496.47;1674064;84;25796;-77
2020/12/21 04:07:36;;;;;;;37.20;22.02;;;;;;;2.23;87.00;101493.01;1674925;84;26388;-77
2020/12/21 04:10:06;;;;;;;35.33;21.48;;;;;;;2.19;87.11;101500.09;1678454;84;25797;-77
2020/12/21 04:12:36;;;;;;;37.17;23.05;;;;;;;2.21;87.28;101498.73;1668900;84;26311;-77
2020/12/21 04:15:05;;;;;;;38.48;21.65;;;;;;;2.23;87.35;101496.88;1679894;84;26324;-77
2020/12/21 04:17:31;;;;;;;36.05;21.02;;;;;;;2.25;87.39;101493.77;1668887;84;25966;-77
2020/12/21 04:19:58;;;;;;;35.95;21.57;;;;;;;2.28;87.37;101487.14;1679876;84;26727;-77
2020/12/21 04:22:24;;;;;;;35.78;21.12;;;;;;;2.29;87.30;101486.25;1677826;84;26709;-77
2020/12/21 04:24:51;;;;;;;33.33;20.75;;;;;;;2.29;87.31;101478.95;1673906;84;26421;-77
2020/12/21 04:27:17;;;;;;;38.08;20.72;;;;;;;2.33;87.41;101471.42;1673337;84;25836;-77
2020/12/21 04:29:44;;;;;;;42.10;23.80;;;;;;;2.34;87.27;101472.62;1677512;85;26366;-77
2020/12/21 04:32:10;;;;;;;42.75;23.40;;;;;;;2.36;87.28;101471.25;1678369;83;25724;-77
2020/12/21 04:34:37;;;;;;;47.40;25.88;;;;;;;2.36;87.29;101473.83;1668228;84;25918;-78
2020/12/21 04:37:03;;;;;;;39.35;23.02;;;;;;;2.37;87.34;101476.34;1675623;85;25862;-78
2020/12/21 04:39:31;;;;;;;46.20;24.63;;;;;;;2.33;87.28;101467.09;1674054;84;25523;-78
2020/12/21 04:41:59;;;;;;;42.85;23.00;;;;;;;2.32;87.36;101469.31;1678885;85;25852;-78
2020/12/21 04:44:27;;;;;;;38.88;22.95;;;;;;;2.27;87.31;101472.59;1675906;84;26636;-77
2020/12/21 04:46:58;;;;;;;46.25;25.50;;;;;;;2.27;87.47;101475.64;1676980;83;26569;-78
2020/12/21 04:49:26;;;;;;;44.63;23.10;;;;;;;2.26;87.43;101470.09;1673380;84;25764;-78
2020/12/21 04:51:53;;;;;;;37.45;21.87;;;;;;;2.23;87.43;101474.49;1674035;84;25856;-77
2020/12/21 04:54:20;;;;;;;38.80;20.97;;;;;;;2.23;87.46;101473.20;1695067;82;26410;-78
2020/12/21 04:56:47;;;;;;;44.73;22.80;;;;;;;2.23;87.49;101468.50;1694431;82;25818;-77
2020/12/21 04:59:14;;;;;;;42.30;23.40;;;;;;;2.25;87.53;101474.89;1695068;82;25973;-78
2020/12/21 05:01:41;;;;;;;42.70;24.18;;;;;;;2.27;87.59;101474.35;1694394;82;25713;-77
2020/12/21 05:04:07;;;;;;;44.35;24.20;;;;;;;2.27;87.50;101475.17;1695021;84;25859;-78
2020/12/21 05:06:34;;;;;;;43.68;23.32;;;;;;;2.21;87.45;101471.19;1699056;83;25835;-78
2020/12/21 05:09:05;;;;;;;47.45;25.48;;;;;;;2.17;87.46;101472.72;1672696;84;26484;-78
2020/12/21 05:11:33;;;;;;;47.00;25.72;;;;;;;2.09;87.56;101469.26;1698078;84;25954;-78
2020/12/21 05:14:11;;;;;;;53.48;27.45;;;;;;;2.07;87.72;101463.80;1696171;82;26282;-80
2020/12/21 05:16:38;;;;;;;43.70;25.30;;;;;;;2.11;87.89;101469.19;1699661;82;25808;-80
2020/12/21 05:19:11;;;;;;;43.87;23.75;;;;;;;2.14;87.95;101466.44;1714039;82;25744;-77
2020/12/21 05:21:40;;;;;;;43.50;23.52;;;;;;;2.16;87.90;101464.16;1705598;82;25745;-78
2020/12/21 05:24:07;;;;;;;47.55;23.45;;;;;;;2.15;87.80;101465.52;1695704;82;25830;-78
2020/12/21 05:26:34;;;;;;;47.50;24.20;;;;;;;1.98;87.78;101441.94;1696496;82;26252;-76
2020/12/21 05:29:00;;;;;;;42.27;23.98;;;;;;;2.14;87.90;101465.98;1695905;82;25795;-77
2020/12/21 05:31:28;;;;;;;45.20;25.50;;;;;;;2.17;87.86;101464.52;1693390;82;25832;-77
2020/12/21 05:33:55;;;;;;;50.05;26.55;;;;;;;2.17;87.83;101461.94;1694340;82;25900;-77
2020/12/21 05:36:23;;;;;;;43.70;25.12;;;;;;;2.23;87.96;101462.06;1697005;82;25801;-77
2020/12/21 05:39:04;;;;;;;48.15;25.08;;;;;;;2.22;87.62;101456.54;1695614;82;25818;-77
2020/12/21 05:41:31;;;;;;;48.90;26.23;;;;;;;2.18;87.53;101449.87;1693159;82;25908;-77
2020/12/21 05:44:06;;;;;;;49.75;26.85;;;;;;;2.18;87.53;101449.87;1693848;84;25837;-77
2020/12/21 05:46:33;;;;;;;50.20;26.15;;;;;;;2.16;87.81;101453.84;1695638;82;26585;-80
2020/12/21 05:49:00;;;;;;;49.08;26.73;;;;;;;2.17;87.93;101454.66;1698098;82;25657;-77
2020/12/21 05:51:39;;;;;;;45.70;26.42;;;;;;;2.14;87.81;101458.23;1695683;82;25772;-77
2020/12/21 05:54:05;;;;;;;52.83;27.45;;;;;;;2.17;88.04;101460.65;1691937;82;25926;-77
2020/12/21 05:56:34;;;;;;;47.70;27.40;;;;;;;2.21;87.99;101463.45;1693792;82;26429;-79
2020/12/21 05:59:03;;;;;;;43.08;27.05;;;;;;;2.22;87.93;101466.86;1698104;84;25799;-79
2020/12/21 06:01:30;;;;;;;45.23;24.63;;;;;;;2.25;87.94;101464.10;1688653;82;26339;-80
2020/12/21 06:04:04;;;;;;;50.10;25.00;;;;;;;2.25;87.77;101464.56;1695120;82;25892;-80
2020/12/21 06:06:32;;;;;;;52.55;26.07;;;;;;;2.20;87.70;101454.49;1697846;82;26034;-77
2020/12/21 06:09:01;;;;;;;48.78;28.55;;;;;;;2.25;88.21;101456.83;1689718;84;25619;-77
2020/12/21 06:11:30;;;;;;;52.05;27.87;;;;;;;2.25;88.21;101456.83;1698018;84;26412;-78
2020/12/21 06:14:08;;;;;;;52.58;28.30;;;;;;;2.25;87.81;101462.81;1696184;84;25728;-78
2020/12/21 06:16:37;;;;;;;50.60;26.75;;;;;;;2.26;87.90;101458.02;1698196;82;25774;-78
2020/12/21 06:19:13;;;;;;;49.35;26.90;;;;;;;2.27;87.86;101462.74;1694013;82;25874;-77
2020/12/21 06:21:53;;;;;;;45.52;27.70;;;;;;;2.21;87.76;101457.47;1694969;82;26652;-78
2020/12/21 06:24:24;;;;;;;46.63;24.75;;;;;;;2.18;87.58;101473.94;1692849;82;26482;-78
2020/12/21 06:26:52;;;;;;;44.40;25.88;;;;;;;2.18;87.58;101473.94;1687227;82;25663;-77
2020/12/21 06:29:25;;;;;;;45.48;25.75;;;;;;;2.21;87.89;101466.49;1698393;84;25822;-78
2020/12/21 06:31:57;;;;;;;46.55;25.48;;;;;;;2.32;87.86;101476.19;1699783;82;25735;-77
2020/12/21 06:34:33;;;;;;;44.65;26.60;;;;;;;2.32;87.86;101476.19;1696281;82;25857;-78
2020/12/21 06:37:16;;;;;;;55.38;26.80;;;;;;;2.32;87.73;101469.31;1698834;82;25814;-78
2020/12/21 06:39:42;;;;;;;49.42;27.45;;;;;;;2.33;87.78;101472.25;1687861;82;25719;-78
2020/12/21 06:42:13;;;;;;;50.35;26.82;;;;;;;2.35;87.80;101472.19;1695725;82;25820;-78
2020/12/21 06:44:41;;;;;;;55.35;26.93;;;;;;;2.32;87.66;101469.75;1694893;82;25751;-78
2020/12/21 06:47:10;;;;;;;58.30;30.08;;;;;;;2.28;87.60;101475.54;1695750;82;25661;-78
2020/12/21 06:49:38;;;;;;;48.23;27.25;;;;;;;2.27;87.73;101472.59;1696747;82;27200;-78
2020/12/21 06:52:06;;;;;;;46.33;26.25;;;;;;;2.22;87.64;101478.46;1695653;82;25883;-78
2020/12/21 06:54:33;;;;;;;45.65;25.00;;;;;;;2.23;87.67;101473.66;1696359;82;25883;-77
2020/12/21 06:56:59;;;;;;;48.30;26.37;;;;;;;2.29;87.86;101475.94;1695531;82;26632;-78
2020/12/21 06:59:27;;;;;;;49.30;26.82;;;;;;;2.29;87.86;101475.94;1694829;82;25691;-78
2020/12/21 07:01:57;;;;;;;46.58;26.50;;;;;;;2.31;87.78;101477.95;1697375;82;25729;-78
2020/12/21 07:04:32;;;;;;;52.23;27.35;;;;;;;2.29;87.65;101473.36;1694544;83;25820;-78
2020/12/21 07:07:05;;;;;;;54.80;28.02;;;;;;;2.31;87.71;101480.98;1693861;82;26350;-78
2020/12/21 07:09:35;;;;;;;52.13;27.22;;;;;;;2.34;87.79;101489.84;1700129;82;25510;-78
2020/12/21 07:12:06;;;;;;;50.58;29.12;;;;;;;2.37;87.81;101481.94;1695950;82;25432;-78
2020/12/21 07:14:37;;;;;;;53.40;29.30;;;;;;;2.38;87.74;101478.46;1695327;82;25882;-78
2020/12/21 07:17:15;;;;;;;51.05;28.80;;;;;;;2.34;87.63;101484.22;1697809;82;26405;-78
2020/12/21 07:19:43;;;;;;;51.58;28.73;;;;;;;2.27;87.54;101486.78;1697709;82;26465;-78
2020/12/21 07:22:11;;;;;;;51.63;27.30;;;;;;;2.22;87.63;101485.73;1697950;84;26430;-78
2020/12/21 07:24:40;;;;;;;52.90;28.15;;;;;;;2.22;87.76;101485.73;1697827;82;25343;-78
2020/12/21 07:27:07;;;;;;;73.57;43.25;;;;;;;2.21;87.74;101487.95;1697110;82;26477;-78
2020/12/21 07:29:37;;;;;;;80.30;45.17;;;;;;;2.19;87.67;101481.21;1694884;82;26334;-78
2020/12/21 07:32:05;;;;;;;119.87;67.15;;;;;;;2.17;87.67;101485.14;1696224;83;25823;-78
2020/12/21 07:34:32;;;;;;;84.83;51.23;;;;;;;2.19;87.82;101477.34;1693589;82;25788;-78
2020/12/21 07:36:59;;;;;;;67.53;42.03;;;;;;;2.22;87.81;101480.58;1697095;82;26693;-78
2020/12/21 07:39:25;;;;;;;61.83;35.10;;;;;;;2.23;87.79;101480.94;1691203;82;26841;-78
2020/12/21 07:41:54;;;;;;;56.73;33.92;;;;;;;2.26;87.79;101487.68;1697515;82;25844;-77
2020/12/21 07:44:33;;;;;;;50.30;29.52;;;;;;;2.30;87.90;101485.33;1694778;82;25755;-77
2020/12/21 07:47:32;;;;;;;55.63;31.65;;;;;;;2.34;87.89;101486.80;1696267;82;25799;-78
2020/12/21 07:50:00;;;;;;;49.13;27.43;;;;;;;2.17;87.67;101470.97;1694686;83;25775;-78
2020/12/21 07:52:27;;;;;;;50.48;28.10;;;;;;;2.17;87.67;101470.97;1694488;82;25812;-77
2020/12/21 07:54:53;;;;;;;52.20;28.87;;;;;;;2.27;87.71;101495.81;1698556;82;25531;-77
2020/12/21 07:57:20;;;;;;;44.90;25.32;;;;;;;2.22;87.71;101490.89;1694936;84;25564;-78
2020/12/21 07:59:58;;;;;;;47.35;27.20;;;;;;;2.26;87.81;101491.55;1693801;82;25793;-77
2020/12/21 08:02:26;;;;;;;49.33;27.70;;;;;;;2.28;87.71;101489.73;1694415;82;25769;-77
2020/12/21 08:04:53;;;;;;;58.75;29.10;;;;;;;2.32;87.83;101489.95;1696659;82;26414;-78
2020/12/21 08:07:23;;;;;;;50.80;28.35;;;;;;;2.34;87.71;101492.42;1692776;82;26652;-77
2020/12/21 08:09:50;;;;;;;54.77;30.40;;;;;;;2.34;87.64;101485.98;1690958;83;25804;-79
2020/12/21 08:12:17;;;;;;;58.70;32.25;;;;;;;2.36;87.51;101477.70;1694516;82;25721;-79
2020/12/21 08:14:45;;;;;;;72.87;46.73;;;;;;;2.36;87.51;101477.70;1694586;82;25771;-79
2020/12/21 08:17:15;;;;;;;74.00;46.58;;;;;;;2.41;87.71;101475.70;1699541;82;26305;-78
2020/12/21 08:19:56;;;;;;;67.08;42.05;;;;;;;2.35;87.45;101479.45;1676686;84;26516;-78
2020/12/21 08:22:26;;;;;;;58.87;34.15;;;;;;;2.33;87.53;101476.59;1705087;82;26700;-78
2020/12/21 08:25:07;;;;;;;51.18;30.40;;;;;;;2.34;87.74;101482.11;1695504;82;25844;-77
2020/12/21 08:27:34;;;;;;;45.08;24.47;;;;;;;2.38;87.79;101475.88;1694386;82;25800;-80
2020/12/21 08:30:13;;;;;;;48.73;27.22;;;;;;;2.33;87.55;101477.87;1691544;84;27103;-77
2020/12/21 08:32:40;;;;;;;48.75;26.87;;;;;;;2.31;87.62;101477.95;1695769;82;25774;-80
2020/12/21 08:35:07;;;;;;;45.17;25.92;;;;;;;2.20;87.61;101464.34;1697408;82;25559;-77
2020/12/21 08:37:35;;;;;;;48.15;27.13;;;;;;;2.37;87.60;101481.94;1698286;82;25634;-77
2020/12/21 08:40:13;;;;;;;55.17;31.70;;;;;;;2.38;87.63;101483.16;1696679;82;25808;-78
2020/12/21 08:42:40;;;;;;;48.28;28.38;;;;;;;2.46;87.75;101487.08;1696241;82;25822;-77
2020/12/21 08:45:08;;;;;;;52.08;29.75;;;;;;;2.47;87.59;101484.86;1697811;82;25506;-77
2020/12/21 08:47:37;;;;;;;47.62;27.30;;;;;;;2.49;87.65;101485.61;1713258;82;26580;-78
2020/12/21 08:50:05;;;;;;;49.33;28.23;;;;;;;2.43;87.40;101485.03;1714241;83;25822;-78
2020/12/21 08:52:32;;;;;;;53.15;28.67;;;;;;;2.37;87.48;101490.53;1712986;82;25763;-78
2020/12/21 08:54:58;;;;;;;46.02;27.82;;;;;;;2.39;87.60;101489.14;1692288;82;26383;-77
2020/12/21 08:57:25;;;;;;;55.75;30.17;;;;;;;2.39;87.58;101491.26;1689179;82;26020;-78
2020/12/21 08:59:51;;;;;;;49.65;27.42;;;;;;;2.43;87.66;101490.66;1694643;82;26544;-78
2020/12/21 09:02:17;;;;;;;46.13;26.62;;;;;;;2.48;87.68;101485.22;1700352;82;25884;-78
2020/12/21 09:04:44;;;;;;;49.08;27.30;;;;;;;2.49;87.51;101479.98;1691422;83;26332;-77
2020/12/21 09:07:10;;;;;;;50.30;25.95;;;;;;;2.47;87.39;101481.81;1689134;82;25867;-78
2020/12/21 09:09:37;;;;;;;51.15;29.15;;;;;;;2.41;87.34;101462.34;1692266;82;25835;-78
2020/12/21 09:12:03;;;;;;;55.30;31.02;;;;;;;2.41;87.34;101462.34;1688734;82;26463;-78
2020/12/21 09:14:30;;;;;;;49.08;28.27;;;;;;;2.40;87.12;101466.28;1694832;83;26391;-78
2020/12/21 09:16:56;;;;;;;51.63;29.00;;;;;;;2.40;87.12;101466.28;1691142;82;25871;-78
2020/12/21 09:19:23;;;;;;;51.02;29.30;;;;;;;2.50;87.41;101480.34;1697527;82;25708;-78
2020/12/21 09:21:49;;;;;;;51.00;29.42;;;;;;;2.51;87.54;101479.45;1690105;82;25707;-78
2020/12/21 09:24:16;;;;;;;52.62;28.73;;;;;;;2.54;87.63;101477.98;1687915;84;25743;-78
2020/12/21 09:26:42;;;;;;;53.45;28.38;;;;;;;2.55;87.53;101473.19;1694011;84;25776;-77
2020/12/21 09:29:09;;;;;;;52.88;29.07;;;;;;;2.55;87.46;101473.65;1692868;84;25792;-77
2020/12/21 09:31:35;;;;;;;50.75;28.50;;;;;;;2.56;87.45;101469.67;1703892;82;26336;-77
2020/12/21 09:34:02;;;;;;;47.27;28.12;;;;;;;2.49;87.77;101444.33;1696110;82;25685;-77
2020/12/21 09:36:29;;;;;;;50.90;27.65;;;;;;;2.49;87.77;101444.33;1700625;82;26384;-77
2020/12/21 09:38:56;;;;;;;46.70;27.07;;;;;;;2.67;87.36;101454.88;1692548;82;25714;-78
2020/12/21 09:41:24;;;;;;;50.95;29.55;;;;;;;2.67;87.36;101454.88;1695033;82;26617;-77
2020/12/21 09:43:51;;;;;;;46.25;27.42;;;;;;;2.74;87.55;101451.51;1695170;82;25893;-78
2020/12/21 09:46:20;;;;;;;56.15;29.40;;;;;;;2.63;87.34;101427.59;1696564;82;25690;-77
2020/12/21 09:48:48;;;;;;;52.90;29.48;;;;;;;2.66;87.74;101430.00;1693286;82;25863;-77
2020/12/21 09:51:15;;;;;;;50.10;27.95;;;;;;;2.66;87.74;101430.00;1697050;82;25729;-77
2020/12/21 09:53:41;;;;;;;50.15;27.87;;;;;;;2.79;87.42;101440.00;1695566;82;25904;-78
2020/12/21 09:56:12;;;;;;;49.75;28.90;;;;;;;2.81;87.42;101438.60;1695974;82;25753;-77
2020/12/21 09:58:39;;;;;;;54.55;29.72;;;;;;;2.78;87.36;101433.63;1696920;82;25904;-77
2020/12/21 10:01:10;;;;;;;51.42;29.52;;;;;;;2.77;87.39;101430.67;1698955;82;25794;-79
2020/12/21 10:03:42;;;;;;;55.28;29.05;;;;;;;2.81;87.56;101435.59;1703150;82;25683;-80
2020/12/21 10:06:12;;;;;;;47.13;27.10;;;;;;;2.88;87.53;101432.17;1699734;82;25798;-79
2020/12/21 10:08:41;;;;;;;53.90;28.15;;;;;;;2.93;87.34;101429.34;1695533;82;25907;-79
2020/12/21 10:11:08;;;;;;;45.60;26.70;;;;;;;2.93;87.34;101429.34;1693795;82;26619;-79
2020/12/21 10:13:35;;;;;;;53.68;29.40;;;;;;;2.95;87.41;101429.63;1694595;82;26472;-79
2020/12/21 10:16:03;;;;;;;52.65;30.62;;;;;;;2.90;87.31;101412.27;1694758;82;25733;-79
2020/12/21 10:18:29;;;;;;;52.30;29.37;;;;;;;3.07;87.31;101434.52;1698180;82;25850;-79
2020/12/21 10:20:55;;;;;;;52.90;29.92;;;;;;;3.07;87.23;101434.52;1692963;82;25901;-80
2020/12/21 10:23:22;;;;;;;50.70;28.73;;;;;;;3.08;87.25;101438.75;1690481;82;26698;-78
2020/12/21 10:25:49;;;;;;;52.38;27.95;;;;;;;3.08;87.19;101430.57;1695105;82;26840;-77
2020/12/21 10:28:15;;;;;;;53.73;27.85;;;;;;;3.07;87.23;101425.02;1696424;82;25710;-77
2020/12/21 10:30:42;;;;;;;49.53;27.77;;;;;;;3.06;87.16;101423.37;1693957;82;25962;-77
2020/12/21 10:33:08;;;;;;;51.37;27.27;;;;;;;3.08;87.22;101419.38;1695243;82;25878;-77
2020/12/21 10:35:37;;;;;;;48.50;27.77;;;;;;;3.09;87.18;101418.02;1696183;82;25737;-78
2020/12/21 10:38:04;;;;;;;49.58;29.70;;;;;;;3.13;87.21;101416.55;1695729;82;25763;-77
2020/12/21 10:40:30;;;;;;;47.67;29.07;;;;;;;3.22;87.13;101407.80;1695506;82;26467;-77
2020/12/21 10:42:57;;;;;;;46.70;27.98;;;;;;;3.22;87.13;101407.80;1694460;82;26397;-78
2020/12/21 10:45:23;;;;;;;52.27;29.37;;;;;;;3.24;87.06;101402.52;1697723;82;25896;-78
2020/12/21 10:47:50;;;;;;;57.83;31.23;;;;;;;3.24;87.06;101402.52;1695990;82;26326;-77
2020/12/21 10:50:16;;;;;;;58.20;29.90;;;;;;;3.28;87.19;101404.84;1694887;82;25789;-77
2020/12/21 10:52:42;;;;;;;53.85;29.40;;;;;;;3.32;87.26;101397.73;1697810;82;25898;-77
2020/12/21 10:55:09;;;;;;;50.30;31.23;;;;;;;3.32;87.26;101397.73;1695326;82;26119;-77
2020/12/21 10:57:35;;;;;;;49.05;29.00;;;;;;;3.21;86.95;101382.87;1694305;82;25954;-77
2020/12/21 11:00:05;;;;;;;53.02;27.95;;;;;;;3.21;86.95;101382.87;1695376;82;26421;-77
2020/12/21 11:02:31;;;;;;;53.13;28.75;;;;;;;3.34;87.12;101394.59;1695009;82;25810;-77
2020/12/21 11:04:58;;;;;;;46.92;27.52;;;;;;;3.39;87.24;101391.74;1695762;82;25896;-77
2020/12/21 11:07:24;;;;;;;46.73;27.35;;;;;;;3.44;87.00;101388.42;1695549;83;25947;-79
2020/12/21 11:09:51;;;;;;;47.05;28.62;;;;;;;3.52;87.28;101384.91;1695360;82;25821;-79
2020/12/21 11:12:22;;;;;;;50.50;29.30;;;;;;;3.57;87.12;101384.14;1694579;82;25892;-77
2020/12/21 11:14:46;;;;;;;50.98;29.18;;;;;;;3.64;87.17;101379.44;1696725;82;25329;-77
2020/12/21 11:17:12;;;;;;;48.55;29.60;;;;;;;3.72;87.27;101376.73;1696467;82;26463;-77
2020/12/21 11:19:39;;;;;;;53.30;29.75;;;;;;;3.67;86.92;101360.67;1696765;82;25685;-77
2020/12/21 11:22:05;;;;;;;50.48;29.40;;;;;;;3.72;86.71;101378.03;1694332;82;25793;-78